Timeline UpdatesTrip UpdatesNews PostsPvt PostsTravel TipsAdmin PostsConv PostsFollowed PostsChat RequestsBlog PostsPNR Posts

Disclaimer
Search
 
 
Tue Jul 29, 2014 14:10:48 ISTHomeTrainsΣChainsAtlasPNRForumGalleryNewsFAQTripsMembersLoginFeedback
Latest...
⇐ Return Journey: Train# 54256

54255/Varanasi Lucknow Passenger (UnReserved)

Sep 11 2013 (1:00PM)
Change Departure Station:
Change Arrival Station:
Post a Train Travel TipPost a Train Travel Tip **new
Post a Comment/Question/Picture/VideoPost a Comment/Question/Picture/Video
Pantry/Catering
???
RSA - Rake Sharing
Rake/Coach Composition
Loco
News    PNR    Forum    Time-Table    Availability    Fare Chart    Map    Arr/Dep History    Trips    Gallery    ΣChains    X/O    Timeline    
Travel Time: 1h 0m    5 halts    Distance: 44 km    Avg Speed: 44 km/hr
Type: Passenger
Zone: NR/Northern
Departs @ 05:40 (Avg 52m late)
Platform# 8
SMTWTFS
Varanasi Junction/BSB 
Arrives @ 06:40 (Avg 1h 28m late)
Platform# ???
SMTWTFS
Bhadohi/BOY 

5 halts. 5 intermediate Stations between Varanasi Junction and Bhadohi

Show ALL intermediate Stations  Show Old Time-Table

#CodeStation NameX/OArrivesAvgDepartsAvgHaltPFDay#KmSpeedElevZoneAddress
1BSB»Varanasi Junction (9)»  -05:40+52810.02782mNRVaranasi 221002, Uttar Pradesh
2LOTLohta (3)  05:53+1:0005:54+1:071m--15.96080mNRLohta, Uttar Pradesh
3CHHChaukhandi  06:04+1:0906:05+1:111m--115.95084mNR221405, Uttar Pradesh
4SWPRSewapuri (2)X  06:13+1:1206:14+1:151m1122.54687mNRState Highway 87, Uttar Pradesh
5KEHKapseti (2)X  06:21+1:1706:22+1:211m--127.96385mNRState Highway 87, Uttar Pradesh
6PRFParsipur (2)  06:30+1:2306:31+1:281m--136.25587mNRSant Ravidas Nagar, Uttar Pradesh
7BOY•Bhadohi (2)•X  06:40+1:2806:41+1:321m--144.55490mNRUttar Pradesh 221401, Uttar Pradesh
8MOFMondh (2)  06:50+1:3606:51+1:411m--152.65491mNRUttar Pradesh 221406, Uttar Pradesh
9SAWSuriawan (2)X  06:59+1:4307:00+1:451m--159.96790mNR221404, Uttar Pradesh
10SQNSarai Kansrai (2)X  07:09+1:4907:10+1:511m--169.93892mNRGopalaha Marg, Uttar Pradesh
11JNHJanghai Junction (3)  07:18+1:5207:20+1:542m--174.94492mNRUttar Pradesh 212401, Uttar Pradesh
12NBPNibhapur (1)  07:31+1:5407:32+1:541m1182.96691mNRThakur Rd, Uttar Pradesh
13BSEBadshahpur (2)  07:40+1:5607:41+1:591m--191.75093mNRMungra Badshahpur, Uttar Pradesh
14SWSSuwansa (2)  07:49+2:0107:50+2:041m--198.342100mNRState Highway 36, Uttar Pradesh
15GRXGaura (2)  07:58+2:0507:59+2:091m--1103.96097mNRState Highway 36, Uttar Pradesh
16DNDDandupur (1)  08:09+2:1008:10+2:121m11113.95199mNRDelhupur, Uttar Pradesh
17PHVPirthiGanj (2)X  08:18+2:1408:19+2:271m--1120.71199mNRState Highway 36, Uttar Pradesh
18PBHPratapgarh Junction (3)X  09:00+2:0709:10+2:1310m21128.11797mNRPratapgarh, Uttar Pradesh
19CILChilbila Junction (5)  09:24+2:0809:25+2:151m--1132.08399mNRState Highway 9, Uttar Pradesh
20JGJJageshwarganj (1)  09:34+2:1209:35+2:151m11144.453101mNRPartapgarh, Uttar Pradesh
21ANTUAntu (2)X  09:44+2:1709:45+2:211m--1152.316101mNRDist. Pratapgarh, Uttar Pradesh
22SHJPSahajipur Halt (1)  09:51+1709:52+171m11153.951102mNRSahajipur, Uttar Pradesh
23MFLMisrauli (1)  09:58+2:2109:59+2:231m11159.031100mNRGauriGanj, Uttar Pradesh
24AMEAmethi (2)  10:07+2:2410:08+2:331m--1163.145107mNRAmethi., Uttar Pradesh
25TLKHTalakhajuri (1)X  10:18+2:3310:19+2:361m11170.643112mNRAntu, Uttar Pradesh
26GNGGauriGanj (2)O  10:27+2:4010:28+2:491m--1176.456110mNRSH 34, Uttar Pradesh
27BANIBani (1)  10:37+2:4910:38+2:521m11184.754109mNRJais, Uttar Pradesh
28KCJKasimpur (1)  10:46+2910:47+291m11192.030111mNRGauriGanj, Uttar Pradesh
29JAISJais (2)  10:52+2:5210:53+3:011m--1194.470108mNRRae Bareli, Uttar Pradesh
30FTGFursatGanj (2)  11:02+3:0311:03+3:071m--1205.069119mNRJais, Uttar Pradesh
31RUMRupamau (2)  11:11+3:0911:12+3:241m--1214.210118mNRGangaGanj, Uttar Pradesh
32RBLRae Bareli Junction (4)X  12:05+2:3312:15+2:3910m--1223.246116mNRRaebareli, Uttar Pradesh
33GANGGangaGanj (2)  12:25+2:4212:26+2:471m--1230.960118mNRBachhrawan, Uttar Pradesh
34HCPHarchandpur (3)X  12:33+2:4912:34+2:531m--1237.954118mNRRae Bareli, Uttar Pradesh
35KVGKundanganj (2)  12:41+2:5312:42+3:001m--1244.344119mNRHarchandpur, Uttar Pradesh
36BCNBachhrawan (2)  12:55+2:5812:57+3:032m--1253.843124mNRLucknow, Uttar Pradesh
37SAGRShrirajnagar (1)  13:05+3:0313:06+3:051m11259.545122mNRMohanlalGanj, Uttar Pradesh
38NHNNigohan (1)X  13:14+3:0513:15+3:081m11265.546120mNRLucknow, Uttar Pradesh
39KKAHKankaha (1)X  13:24+3:0813:25+3:101m11272.460125mNRBachhrawan, Uttar Pradesh
40MLJMohanlalGanj (1)  13:33+3:1013:34+3:221m11280.417124mNRMohanlalganj, Uttar Pradesh
41UTRUtraitia Junction (2)X  14:04+3:0614:05+3:091m--1288.921124mNRLucknow, Uttar Pradesh
42BHAWBlock Hut A  14:18+3:0914:19+3:091m--1293.415121mNRLucknow, Uttar Pradesh
43LKOLucknow Charbagh (9)  14:50+3:06---1301.1-123mNR226004, Uttar Pradesh
Scroll to Top
Scroll to Bottom